Time;durP1;ratioP1;P1;durP2;ratioP2;P2;SDS_P1;SDS_P2;PMS_P1;PMS_P2;Temp;Humidity;BMP_temperature;BMP_pressure;BME280_temperature;BME280_humidity;BME280_pressure;Samples;Min_cycle;Max_cycle;Signal;HPM_P1;HPM_P2
2023/08/17 00:02:26;;;;;;;1.50;1.40;;;27.80;45.80;;;;;;5045845;28;20451;-83
2023/08/17 00:04:54;;;;;;;3.33;1.50;;;27.80;45.80;;;;;;5051987;28;20429;-82
2023/08/17 00:07:22;;;;;;;3.07;1.33;;;27.70;45.80;;;;;;5052226;28;20426;-82
2023/08/17 00:09:51;;;;;;;2.37;1.30;;;27.70;45.60;;;;;;5039781;28;20465;-82
2023/08/17 00:12:19;;;;;;;1.40;1.30;;;27.70;45.70;;;;;;5047061;28;20500;-81
2023/08/17 00:14:48;;;;;;;1.40;1.30;;;27.70;45.70;;;;;;5029523;28;20490;-81
2023/08/17 00:17:16;;;;;;;2.33;1.50;;;27.70;45.60;;;;;;5031399;28;20446;-82
2023/08/17 00:19:44;;;;;;;1.57;1.43;;;27.70;46.10;;;;;;5041992;28;20447;-82
2023/08/17 00:22:12;;;;;;;4.00;1.50;;;27.70;46.60;;;;;;5034676;28;20482;-83
2023/08/17 00:24:41;;;;;;;1.83;1.30;;;27.70;46.90;;;;;;5033408;28;20516;-82
2023/08/17 00:27:10;;;;;;;1.93;1.33;;;27.80;47.00;;;;;;5036503;28;20426;-82
2023/08/17 00:29:38;;;;;;;1.53;1.43;;;27.70;47.10;;;;;;5017798;28;20515;-82
2023/08/17 00:32:08;;;;;;;1.47;1.37;;;27.70;47.30;;;;;;5042127;28;20440;-82
2023/08/17 00:34:36;;;;;;;3.43;1.37;;;27.70;47.40;;;;;;5042406;28;20436;-81
2023/08/17 00:37:04;;;;;;;2.37;1.40;;;27.60;47.40;;;;;;5051558;28;20494;-82
2023/08/17 00:39:32;;;;;;;3.70;1.60;;;27.70;47.40;;;;;;5048758;28;20457;-82
2023/08/17 00:42:00;;;;;;;3.37;1.40;;;27.60;47.40;;;;;;5037548;28;20515;-82
2023/08/17 00:44:28;;;;;;;2.30;1.50;;;27.60;47.20;;;;;;5030394;28;20472;-82
2023/08/17 00:46:56;;;;;;;1.37;1.20;;;27.60;47.30;;;;;;5043264;28;20419;-82
2023/08/17 00:49:26;;;;;;;2.07;1.47;;;27.60;47.50;;;;;;5028463;28;20459;-80
2023/08/17 00:51:54;;;;;;;1.60;1.50;;;27.60;47.40;;;;;;5034522;28;20554;-82
2023/08/17 00:54:25;;;;;;;2.73;1.50;;;27.60;47.50;;;;;;5039419;28;20446;-82
2023/08/17 00:56:53;;;;;;;3.10;1.60;;;27.60;47.60;;;;;;5047013;28;20418;-82
2023/08/17 00:59:21;;;;;;;5.57;1.70;;;27.60;47.60;;;;;;5037459;28;20426;-82
2023/08/17 01:01:49;;;;;;;1.60;1.00;;;27.60;47.60;;;;;;5036562;28;20455;-81
2023/08/17 01:04:17;;;;;;;2.30;1.37;;;27.60;47.60;;;;;;5038040;28;20519;-81
2023/08/17 01:06:47;;;;;;;1.97;1.40;;;27.60;47.70;;;;;;5037769;28;20451;-82
2023/08/17 01:09:15;;;;;;;3.40;1.50;;;27.60;47.60;;;;;;5037516;28;20410;-82
2023/08/17 01:11:48;;;;;;;1.30;1.20;;;27.60;47.60;;;;;;5029528;28;20433;-82
2023/08/17 01:14:19;;;;;;;1.63;1.53;;;27.60;47.60;;;;;;5046162;28;20524;-82
2023/08/17 01:16:49;;;;;;;1.73;1.30;;;27.50;47.90;;;;;;5031321;28;20446;-82
2023/08/17 01:19:22;;;;;;;2.93;1.30;;;27.50;47.80;;;;;;5040215;28;20417;-82
2023/08/17 01:21:52;;;;;;;4.53;2.33;;;27.50;47.80;;;;;;5039937;28;20458;-82
2023/08/17 01:24:21;;;;;;;2.57;1.60;;;27.50;47.90;;;;;;5040556;28;20471;-81
2023/08/17 01:26:49;;;;;;;4.10;1.90;;;27.40;48.10;;;;;;5040653;28;20495;-82
2023/08/17 01:29:18;;;;;;;2.03;1.33;;;27.50;48.20;;;;;;5048977;28;20478;-81
2023/08/17 01:31:49;;;;;;;2.20;1.40;;;27.50;47.90;;;;;;5049134;28;20439;-82
2023/08/17 01:34:20;;;;;;;2.40;1.63;;;27.50;47.90;;;;;;5032651;28;20505;-82
2023/08/17 01:36:50;;;;;;;2.80;1.60;;;27.40;48.50;;;;;;5041656;28;20435;-82
2023/08/17 01:39:18;;;;;;;3.07;1.77;;;27.40;47.90;;;;;;5048785;28;20469;-82
2023/08/17 01:41:47;;;;;;;1.90;1.57;;;27.40;48.00;;;;;;5034947;28;20508;-82
2023/08/17 01:44:15;;;;;;;1.57;1.40;;;27.40;48.10;;;;;;5046765;28;20464;-82
2023/08/17 01:46:43;;;;;;;5.70;1.50;;;27.40;48.10;;;;;;5034772;28;20456;-82
2023/08/17 01:49:12;;;;;;;3.57;1.53;;;27.40;47.80;;;;;;5042849;28;20409;-82
2023/08/17 01:51:40;;;;;;;1.47;1.37;;;27.30;48.00;;;;;;5048320;28;20432;-82
2023/08/17 01:54:09;;;;;;;1.77;1.33;;;27.30;48.10;;;;;;5040478;28;20484;-82
2023/08/17 01:56:37;;;;;;;5.37;1.80;;;27.40;48.20;;;;;;5048048;28;20438;-82
2023/08/17 01:59:07;;;;;;;2.23;1.40;;;27.40;48.30;;;;;;5037342;28;20468;-82
2023/08/17 02:01:35;;;;;;;3.00;1.50;;;27.30;48.00;;;;;;5044016;28;20446;-82
2023/08/17 02:04:04;;;;;;;4.67;1.47;;;27.30;48.20;;;;;;5043610;28;20772;-82
2023/08/17 02:06:32;;;;;;;2.60;1.30;;;27.30;48.30;;;;;;5053687;28;20502;-82
2023/08/17 02:09:00;;;;;;;4.67;1.67;;;27.20;48.50;;;;;;5050803;28;20407;-82
2023/08/17 02:11:28;;;;;;;3.13;1.87;;;27.20;48.20;;;;;;5061246;28;20420;-81
2023/08/17 02:13:56;;;;;;;2.73;1.37;;;27.30;48.30;;;;;;5045702;28;20419;-82
2023/08/17 02:16:26;;;;;;;3.13;1.40;;;27.30;48.40;;;;;;5039521;28;20490;-82
2023/08/17 02:18:54;;;;;;;2.90;1.47;;;27.20;48.20;;;;;;5064160;28;20472;-82
2023/08/17 02:21:22;;;;;;;2.03;1.40;;;27.20;48.40;;;;;;5030791;28;20475;-82
2023/08/17 02:23:50;;;;;;;1.37;1.27;;;27.30;48.40;;;;;;5044812;28;20443;-82
2023/08/17 02:26:19;;;;;;;1.50;1.40;;;27.20;48.40;;;;;;5050707;28;20496;-82
2023/08/17 02:28:47;;;;;;;2.80;1.50;;;27.20;48.50;;;;;;5046631;28;20461;-82
2023/08/17 02:31:15;;;;;;;3.60;1.33;;;27.10;48.40;;;;;;5042160;28;20431;-82
2023/08/17 02:33:44;;;;;;;1.23;1.13;;;27.10;48.40;;;;;;5043340;28;20418;-82
2023/08/17 02:36:12;;;;;;;1.87;1.43;;;27.20;48.30;;;;;;5052444;28;20453;-82
2023/08/17 02:38:41;;;;;;;3.17;1.40;;;27.10;48.40;;;;;;5041748;28;20471;-82
2023/08/17 02:41:09;;;;;;;2.80;1.20;;;27.10;48.40;;;;;;5036423;28;20447;-82
2023/08/17 02:43:37;;;;;;;6.00;1.20;;;27.10;48.50;;;;;;5044081;28;20513;-82
2023/08/17 02:46:07;;;;;;;2.23;1.37;;;27.10;48.50;;;;;;5044184;28;20467;-82
2023/08/17 02:48:35;;;;;;;2.10;1.47;;;27.10;48.40;;;;;;5045760;28;20459;-82
2023/08/17 02:51:04;;;;;;;1.73;1.50;;;27.10;48.50;;;;;;5058432;28;20426;-82
2023/08/17 02:53:32;;;;;;;1.63;1.20;;;27.10;48.40;;;;;;5063453;28;20413;-81
2023/08/17 02:56:00;;;;;;;1.67;1.40;;;27.00;48.30;;;;;;5049897;28;20821;-82
2023/08/17 02:58:28;;;;;;;3.10;1.47;;;27.00;48.40;;;;;;5050229;28;20480;-82
2023/08/17 03:00:56;;;;;;;1.80;1.43;;;27.00;48.50;;;;;;5025535;28;20427;-81
2023/08/17 03:03:25;;;;;;;2.57;1.33;;;27.00;48.80;;;;;;5032568;28;20440;-82
2023/08/17 03:05:53;;;;;;;1.50;1.40;;;27.00;48.50;;;;;;5043513;28;20493;-81
2023/08/17 03:08:23;;;;;;;2.20;1.10;;;27.00;48.80;;;;;;5048381;28;20418;-81
2023/08/17 03:10:51;;;;;;;3.83;1.10;;;27.00;48.70;;;;;;5047822;28;20424;-81
2023/08/17 03:13:19;;;;;;;2.23;1.40;;;26.90;48.90;;;;;;5059467;28;20402;-82
2023/08/17 03:15:47;;;;;;;2.80;1.40;;;27.00;48.80;;;;;;5043784;28;20463;-82
2023/08/17 03:18:15;;;;;;;1.57;1.47;;;27.00;48.90;;;;;;5058411;28;20469;-82
2023/08/17 03:20:45;;;;;;;4.97;1.33;;;27.00;49.00;;;;;;5031037;28;20427;-81
2023/08/17 03:23:13;;;;;;;3.63;1.20;;;27.00;48.90;;;;;;5050440;28;20440;-82
2023/08/17 03:25:42;;;;;;;1.30;1.20;;;27.00;48.80;;;;;;5044466;28;20468;-82
2023/08/17 03:28:10;;;;;;;1.77;1.67;;;26.90;48.90;;;;;;5057813;28;20458;-82
2023/08/17 03:30:38;;;;;;;2.80;1.33;;;26.90;48.90;;;;;;5041609;28;20494;-82
2023/08/17 03:33:06;;;;;;;1.90;1.80;;;26.90;49.00;;;;;;5046550;28;20425;-82
2023/08/17 03:35:34;;;;;;;4.93;1.60;;;26.90;49.00;;;;;;5044771;28;20467;-82
2023/08/17 03:38:03;;;;;;;3.73;1.40;;;26.90;49.00;;;;;;5043995;28;20437;-82
2023/08/17 03:40:31;;;;;;;2.10;1.30;;;26.90;49.00;;;;;;5042118;28;20446;-82
2023/08/17 03:43:01;;;;;;;1.40;1.30;;;26.90;49.00;;;;;;5043153;28;20414;-82
2023/08/17 03:45:29;;;;;;;2.30;1.37;;;26.90;49.10;;;;;;5041970;28;20535;-81
2023/08/17 03:47:57;;;;;;;1.37;1.07;;;26.90;49.00;;;;;;5041907;28;20433;-82
2023/08/17 03:50:27;;;;;;;2.80;1.60;;;26.90;49.00;;;;;;5041196;28;20443;-82
2023/08/17 03:52:55;;;;;;;3.97;1.50;;;26.80;49.00;;;;;;5055739;28;20420;-81
2023/08/17 03:55:23;;;;;;;2.80;1.20;;;26.80;49.00;;;;;;5033640;28;20496;-82
2023/08/17 03:57:51;;;;;;;1.47;1.00;;;26.80;49.20;;;;;;5039798;28;20459;-83
2023/08/17 04:00:21;;;;;;;3.53;1.20;;;26.80;49.10;;;;;;5035623;28;20445;-84
2023/08/17 04:02:49;;;;;;;2.90;1.57;;;26.80;49.10;;;;;;5039524;28;20463;-84
2023/08/17 04:05:17;;;;;;;1.97;1.37;;;26.80;49.00;;;;;;5038836;28;20473;-83
2023/08/17 04:07:45;;;;;;;1.37;1.27;;;26.80;49.10;;;;;;5040329;28;20444;-84
2023/08/17 04:10:13;;;;;;;1.40;1.30;;;26.80;49.10;;;;;;5037690;28;20521;-85
2023/08/17 04:12:41;;;;;;;2.20;1.27;;;26.80;49.20;;;;;;5040350;28;20588;-85
2023/08/17 04:15:09;;;;;;;2.57;1.30;;;26.70;49.30;;;;;;5053624;28;20441;-83
2023/08/17 04:17:39;;;;;;;1.63;1.00;;;26.70;49.30;;;;;;5039948;28;20422;-85
2023/08/17 04:20:09;;;;;;;1.70;1.30;;;26.70;49.20;;;;;;5039942;28;20525;-83
2023/08/17 04:22:37;;;;;;;2.60;1.33;;;26.70;49.10;;;;;;5042918;28;20435;-83
2023/08/17 04:25:07;;;;;;;1.30;1.20;;;26.70;49.20;;;;;;5040870;28;20471;-83
2023/08/17 04:27:35;;;;;;;1.30;1.20;;;26.70;49.40;;;;;;5048638;28;20501;-83
2023/08/17 04:30:04;;;;;;;5.40;1.30;;;26.70;49.40;;;;;;5031579;28;20429;-83
2023/08/17 04:32:32;;;;;;;2.60;1.30;;;26.70;49.40;;;;;;5041710;28;20486;-83
2023/08/17 04:35:02;;;;;;;1.37;1.23;;;26.70;49.30;;;;;;5040876;28;20453;-83
2023/08/17 04:37:30;;;;;;;3.50;1.30;;;26.70;49.30;;;;;;5041319;28;20448;-85
2023/08/17 04:39:58;;;;;;;1.20;1.10;;;26.70;49.40;;;;;;5042878;28;20509;-83
2023/08/17 04:42:27;;;;;;;2.70;1.40;;;26.60;49.50;;;;;;5041198;28;20418;-82
2023/08/17 04:44:55;;;;;;;1.33;1.23;;;26.60;49.50;;;;;;5039923;28;20471;-82
2023/08/17 04:47:23;;;;;;;1.67;1.40;;;26.60;49.50;;;;;;5048344;28;20442;-83
2023/08/17 04:49:52;;;;;;;1.43;1.27;;;26.60;49.60;;;;;;5050857;28;20425;-83
2023/08/17 04:52:22;;;;;;;1.13;1.00;;;26.60;49.50;;;;;;5042624;28;20513;-82
2023/08/17 04:54:50;;;;;;;1.20;1.00;;;26.60;49.70;;;;;;5042776;28;20446;-83
2023/08/17 04:57:19;;;;;;;1.30;1.20;;;26.60;49.50;;;;;;5038813;28;20434;-83
2023/08/17 04:59:47;;;;;;;1.23;1.13;;;26.60;49.60;;;;;;5040779;28;20439;-83
2023/08/17 05:02:16;;;;;;;2.10;1.20;;;26.60;50.30;;;;;;5022639;28;20470;-83
2023/08/17 05:04:43;;;;;;;1.50;1.40;;;26.60;49.50;;;;;;5029767;28;20490;-83
2023/08/17 05:07:12;;;;;;;2.10;1.23;;;26.60;49.50;;;;;;5040998;28;20502;-83
2023/08/17 05:09:41;;;;;;;1.70;1.00;;;26.60;49.70;;;;;;5049424;28;21010;-83
2023/08/17 05:12:09;;;;;;;2.40;1.33;;;26.60;49.70;;;;;;5037326;28;20435;-83
2023/08/17 05:14:37;;;;;;;1.83;1.30;;;26.50;49.80;;;;;;5027654;28;20472;-83
2023/08/17 05:17:05;;;;;;;2.00;1.27;;;26.60;50.00;;;;;;5056552;28;20422;-83
2023/08/17 05:19:34;;;;;;;1.43;1.27;;;26.60;49.60;;;;;;5041497;28;20500;-83
2023/08/17 05:22:03;;;;;;;2.30;1.20;;;26.60;49.70;;;;;;5054201;28;20489;-83
2023/08/17 05:24:31;;;;;;;3.30;1.27;;;26.60;49.70;;;;;;5034004;28;20438;-84
2023/08/17 05:27:00;;;;;;;1.90;1.13;;;26.60;49.70;;;;;;5047545;28;20436;-83
2023/08/17 05:29:29;;;;;;;4.83;1.13;;;26.60;49.80;;;;;;5046752;28;20497;-84
2023/08/17 05:31:57;;;;;;;2.23;1.27;;;26.60;49.60;;;;;;5054415;28;20446;-84
2023/08/17 05:34:25;;;;;;;3.83;1.20;;;26.60;49.80;;;;;;5049278;28;20831;-84
2023/08/17 05:36:53;;;;;;;1.30;1.00;;;26.60;49.80;;;;;;5055226;28;20410;-81
2023/08/17 05:39:21;;;;;;;1.43;1.10;;;26.60;49.90;;;;;;5061831;28;20398;-83
2023/08/17 05:41:49;;;;;;;2.13;1.30;;;26.60;49.80;;;;;;5063037;28;20420;-83
2023/08/17 05:44:19;;;;;;;1.33;1.10;;;26.60;49.90;;;;;;5053399;28;20463;-83
2023/08/17 05:46:48;;;;;;;2.10;1.50;;;26.60;50.10;;;;;;5062237;28;20425;-82
2023/08/17 05:49:16;;;;;;;1.10;1.10;;;26.60;50.00;;;;;;5051309;28;20428;-83
2023/08/17 05:51:44;;;;;;;2.23;1.20;;;26.60;49.90;;;;;;5042326;28;20414;-82
2023/08/17 05:54:13;;;;;;;2.37;1.30;;;26.60;50.00;;;;;;5052862;28;20450;-83
2023/08/17 05:56:44;;;;;;;1.70;1.30;;;26.60;50.10;;;;;;5029683;28;20456;-83
2023/08/17 05:59:13;;;;;;;2.40;1.20;;;26.60;50.20;;;;;;5022945;28;20440;-84
2023/08/17 06:01:43;;;;;;;1.87;1.20;;;26.60;50.00;;;;;;5021551;28;20518;-82
2023/08/17 06:04:11;;;;;;;2.17;1.27;;;26.50;50.10;;;;;;5026338;28;20481;-83
2023/08/17 06:06:40;;;;;;;1.37;1.10;;;26.50;50.20;;;;;;5047651;28;20466;-83
2023/08/17 06:09:08;;;;;;;2.33;1.10;;;26.50;50.30;;;;;;5044678;28;20499;-83
2023/08/17 06:11:36;;;;;;;3.60;1.30;;;26.60;50.20;;;;;;5043229;28;20422;-83
2023/08/17 06:14:05;;;;;;;5.90;1.40;;;26.50;50.10;;;;;;5048290;28;20443;-83
2023/08/17 06:16:33;;;;;;;3.53;1.33;;;26.60;50.20;;;;;;5029082;28;20464;-84
2023/08/17 06:19:03;;;;;;;2.33;1.37;;;26.50;50.10;;;;;;5038166;28;20426;-83
2023/08/17 06:21:31;;;;;;;1.83;1.03;;;26.60;50.30;;;;;;5043627;28;20483;-83
2023/08/17 06:23:59;;;;;;;1.40;1.13;;;26.60;50.40;;;;;;5041224;28;20425;-83
2023/08/17 06:26:27;;;;;;;2.30;1.33;;;26.60;50.20;;;;;;5043059;28;20422;-82
2023/08/17 06:28:56;;;;;;;2.13;1.30;;;26.60;50.40;;;;;;5043347;28;20418;-83
2023/08/17 06:31:27;;;;;;;1.20;1.10;;;26.60;50.20;;;;;;5048197;28;20517;-82
2023/08/17 06:33:55;;;;;;;1.43;1.33;;;26.60;50.20;;;;;;5039167;28;20450;-84
2023/08/17 06:36:24;;;;;;;1.63;1.30;;;26.60;50.20;;;;;;5043504;28;20509;-83
2023/08/17 06:38:53;;;;;;;1.97;1.60;;;26.60;50.10;;;;;;5042405;28;20449;-82
2023/08/17 06:41:21;;;;;;;1.77;1.20;;;26.60;50.20;;;;;;5038289;28;20499;-82
2023/08/17 06:43:49;;;;;;;2.50;1.23;;;26.60;50.10;;;;;;5040736;28;20442;-82
2023/08/17 06:46:17;;;;;;;1.80;1.23;;;26.70;50.20;;;;;;5039534;28;20453;-84
2023/08/17 06:48:46;;;;;;;2.63;1.33;;;26.60;50.20;;;;;;5042104;28;20534;-83
2023/08/17 06:51:15;;;;;;;2.63;1.30;;;26.60;50.20;;;;;;5040601;28;20455;-82
2023/08/17 06:53:45;;;;;;;1.30;1.30;;;26.60;50.00;;;;;;5046107;28;20466;-83
2023/08/17 06:56:13;;;;;;;1.60;1.20;;;26.60;50.20;;;;;;5040612;28;20480;-83
2023/08/17 06:58:41;;;;;;;7.67;1.93;;;26.60;50.20;;;;;;5042519;28;20429;-82
2023/08/17 07:01:09;;;;;;;1.60;1.50;;;26.60;50.30;;;;;;5042942;28;20503;-83
2023/08/17 07:03:38;;;;;;;4.20;1.47;;;26.60;50.20;;;;;;5044195;28;20433;-82
2023/08/17 07:06:06;;;;;;;1.50;1.40;;;26.50;50.40;;;;;;5046751;28;20490;-83
2023/08/17 07:08:34;;;;;;;2.90;1.43;;;26.60;50.50;;;;;;5051770;28;20486;-83
2023/08/17 07:11:05;;;;;;;2.90;1.30;;;26.60;50.30;;;;;;5029055;28;20427;-83
2023/08/17 07:13:33;;;;;;;1.87;1.50;;;26.60;50.20;;;;;;5044995;28;20488;-82
2023/08/17 07:16:01;;;;;;;2.63;1.70;;;26.60;50.30;;;;;;5047793;28;20524;-83
2023/08/17 07:18:30;;;;;;;2.20;1.37;;;26.70;50.10;;;;;;5045362;28;20436;-83
2023/08/17 07:20:58;;;;;;;1.60;1.50;;;26.70;50.30;;;;;;5044827;28;20475;-83
2023/08/17 07:23:26;;;;;;;2.13;1.50;;;26.70;50.20;;;;;;5046583;28;20446;-83
2023/08/17 07:25:54;;;;;;;3.07;1.80;;;26.80;50.10;;;;;;5047590;28;20475;-83
2023/08/17 07:28:24;;;;;;;1.87;1.50;;;26.70;50.20;;;;;;5047471;28;20482;-84
2023/08/17 07:30:52;;;;;;;1.47;1.37;;;26.70;50.10;;;;;;5055632;28;20429;-83
2023/08/17 07:33:20;;;;;;;2.40;1.70;;;26.70;50.30;;;;;;5045494;28;20451;-84
2023/08/17 07:35:48;;;;;;;2.37;1.63;;;26.70;50.30;;;;;;5041436;28;20468;-81
2023/08/17 07:38:16;;;;;;;3.67;1.80;;;26.70;50.20;;;;;;5048766;28;20430;-82
2023/08/17 07:40:44;;;;;;;2.33;1.87;;;26.70;50.20;;;;;;5039929;28;20463;-84
2023/08/17 07:43:12;;;;;;;2.20;1.87;;;26.70;50.20;;;;;;5038684;28;20514;-83
2023/08/17 07:45:42;;;;;;;5.23;1.63;;;26.70;50.40;;;;;;5054908;28;20458;-83
2023/08/17 07:48:11;;;;;;;2.93;1.83;;;26.70;50.40;;;;;;5041181;28;20442;-82
2023/08/17 07:50:39;;;;;;;3.30;1.90;;;26.70;50.30;;;;;;5029882;28;20526;-81
2023/08/17 07:53:07;;;;;;;3.53;1.50;;;26.70;50.60;;;;;;5039295;28;20415;-84
2023/08/17 07:55:35;;;;;;;1.93;1.80;;;26.70;50.50;;;;;;5042128;28;20446;-83
2023/08/17 07:58:05;;;;;;;2.53;1.50;;;26.70;50.40;;;;;;5044782;28;20443;-82
2023/08/17 08:00:34;;;;;;;2.30;2.10;;;26.70;50.60;;;;;;5036607;28;20444;-82
2023/08/17 08:03:03;;;;;;;2.50;1.60;;;26.70;50.60;;;;;;5037843;28;20486;-81
2023/08/17 08:05:32;;;;;;;3.80;1.93;;;26.70;50.70;;;;;;5036598;28;20500;-81
2023/08/17 08:08:00;;;;;;;2.33;1.90;;;26.70;50.50;;;;;;5046134;28;20427;-81
2023/08/17 08:10:29;;;;;;;2.03;1.80;;;26.70;50.80;;;;;;5043759;28;20430;-82
2023/08/17 08:12:57;;;;;;;2.57;1.77;;;26.70;51.10;;;;;;5052966;28;20955;-82
2023/08/17 08:15:25;;;;;;;1.63;1.53;;;26.70;51.20;;;;;;5028902;28;20479;-82
2023/08/17 08:17:53;;;;;;;6.73;1.70;;;26.70;51.10;;;;;;5046247;28;20425;-82
2023/08/17 08:20:24;;;;;;;2.33;1.50;;;26.70;51.20;;;;;;5057698;28;20481;-83
2023/08/17 08:22:51;;;;;;;6.17;1.83;;;26.70;51.60;;;;;;5037866;28;20509;-83
2023/08/17 08:25:19;;;;;;;2.00;1.30;;;26.70;51.70;;;;;;5043796;28;20426;-81
2023/08/17 08:27:48;;;;;;;1.70;1.60;;;26.80;51.60;;;;;;5063762;28;20467;-82
2023/08/17 08:30:18;;;;;;;1.70;1.50;;;26.80;51.60;;;;;;5039381;28;20435;-82
2023/08/17 08:32:46;;;;;;;2.43;1.30;;;26.90;51.60;;;;;;5055849;28;20416;-80
2023/08/17 08:35:14;;;;;;;1.73;1.60;;;26.80;51.60;;;;;;5056599;28;20463;-84
2023/08/17 08:37:43;;;;;;;1.67;1.50;;;26.90;51.50;;;;;;5059906;28;20440;-82
2023/08/17 08:40:12;;;;;;;1.77;1.40;;;26.90;51.80;;;;;;5054873;28;20438;-82
2023/08/17 08:42:40;;;;;;;2.87;1.53;;;26.90;51.50;;;;;;5044114;28;20446;-79
2023/08/17 08:45:10;;;;;;;2.17;2.00;;;26.90;51.50;;;;;;5042113;28;20550;-80
2023/08/17 08:47:38;;;;;;;1.83;1.70;;;27.00;51.50;;;;;;5042149;28;20382;-81
2023/08/17 08:50:07;;;;;;;2.83;1.53;;;27.00;51.50;;;;;;5043758;28;20478;-82
2023/08/17 08:52:36;;;;;;;1.93;1.77;;;27.10;51.50;;;;;;5035197;28;20463;-82
2023/08/17 08:55:11;;;;;;;3.00;1.87;;;27.10;51.40;;;;;;5051011;28;20495;-82
2023/08/17 08:57:40;;;;;;;1.77;1.60;;;27.10;51.40;;;;;;5036476;28;20450;-82
2023/08/17 09:00:09;;;;;;;5.13;1.53;;;27.10;51.50;;;;;;5032376;28;20506;-82
2023/08/17 09:02:37;;;;;;;1.80;1.70;;;27.10;51.50;;;;;;5036494;28;20495;-82
2023/08/17 09:05:07;;;;;;;2.37;1.80;;;27.10;51.50;;;;;;5026922;28;20506;-82
2023/08/17 09:07:34;;;;;;;3.03;2.00;;;27.10;51.60;;;;;;5039629;28;20434;-82
2023/08/17 09:10:03;;;;;;;1.80;1.70;;;27.20;51.60;;;;;;5039592;28;20486;-82
2023/08/17 09:12:33;;;;;;;2.23;1.60;;;27.30;51.50;;;;;;5031690;28;20446;-82
2023/08/17 09:15:08;;;;;;;1.80;1.70;;;27.40;51.60;;;;;;5057438;28;20455;-82
2023/08/17 09:17:36;;;;;;;1.83;1.73;;;27.40;51.60;;;;;;5043401;28;20435;-82
2023/08/17 09:20:07;;;;;;;1.90;1.80;;;27.50;51.40;;;;;;5040540;28;20476;-82
2023/08/17 09:22:39;;;;;;;3.03;1.70;;;27.50;51.50;;;;;;5025829;28;20467;-82
2023/08/17 09:25:07;;;;;;;3.10;1.70;;;27.60;51.40;;;;;;5043369;28;20442;-82
2023/08/17 09:27:37;;;;;;;1.53;1.43;;;27.70;51.00;;;;;;5059755;28;20443;-82
2023/08/17 09:30:06;;;;;;;3.60;1.50;;;27.80;51.10;;;;;;5035690;28;20444;-82
2023/08/17 09:32:34;;;;;;;1.90;1.37;;;27.80;51.00;;;;;;5038358;28;20464;-82
2023/08/17 09:35:04;;;;;;;1.83;1.73;;;27.90;50.90;;;;;;5032280;28;20463;-82
2023/08/17 09:37:32;;;;;;;3.70;2.07;;;27.80;50.80;;;;;;5039264;28;20441;-81
2023/08/17 09:40:00;;;;;;;1.53;1.47;;;27.90;51.10;;;;;;5045935;28;20450;-82
2023/08/17 09:42:28;;;;;;;3.43;1.67;;;27.80;51.10;;;;;;5055465;28;20505;-84
2023/08/17 09:45:00;;;;;;;1.70;1.47;;;27.90;51.10;;;;;;5046388;28;20516;-82
2023/08/17 09:47:29;;;;;;;1.93;1.83;;;27.90;50.70;;;;;;5035743;28;20466;-82
2023/08/17 09:49:57;;;;;;;1.70;1.60;;;27.90;50.90;;;;;;5044394;28;20439;-82
2023/08/17 09:52:25;;;;;;;2.50;1.40;;;27.90;51.10;;;;;;5031170;28;20419;-82
2023/08/17 09:54:54;;;;;;;1.47;1.37;;;28.00;51.40;;;;;;5027998;28;20472;-82
2023/08/17 09:57:22;;;;;;;1.83;1.63;;;28.00;51.20;;;;;;5048189;23;20488;-80
2023/08/17 09:59:53;;;;;;;2.77;1.57;;;28.00;51.30;;;;;;5037772;28;20522;-81
2023/08/17 10:02:24;;;;;;;1.87;1.73;;;28.00;51.30;;;;;;5034064;28;20446;-80
2023/08/17 10:04:54;;;;;;;1.60;1.50;;;28.00;51.00;;;;;;5032111;28;20523;-80
2023/08/17 10:07:22;;;;;;;1.97;1.40;;;28.00;51.30;;;;;;5033383;28;20550;-80
2023/08/17 10:10:04;;;;;;;1.70;1.60;;;28.00;51.40;;;;;;5037365;28;20438;-81
2023/08/17 10:12:33;;;;;;;1.60;1.50;;;28.00;51.40;;;;;;5035487;28;20445;-81
2023/08/17 10:15:04;;;;;;;3.07;1.70;;;28.10;51.50;;;;;;5038548;28;20414;-80
2023/08/17 10:17:46;;;;;;;1.70;1.60;;;28.10;51.20;;;;;;5033521;28;20446;-81
2023/08/17 10:20:14;;;;;;;1.50;1.40;;;28.10;51.50;;;;;;5038893;28;20478;-81
2023/08/17 10:22:45;;;;;;;1.73;1.63;;;28.10;51.50;;;;;;5042816;28;20467;-80
2023/08/17 10:25:13;;;;;;;1.63;1.53;;;28.10;51.30;;;;;;5042171;28;20479;-81
2023/08/17 10:27:41;;;;;;;1.67;1.27;;;28.10;51.40;;;;;;5038295;28;20459;-80
2023/08/17 10:30:11;;;;;;;1.60;1.50;;;28.10;51.40;;;;;;5033314;28;20527;-81
2023/08/17 10:32:44;;;;;;;1.53;1.43;;;28.10;51.20;;;;;;5040988;28;20435;-80
2023/08/17 10:35:13;;;;;;;1.70;1.60;;;28.10;51.50;;;;;;5040472;28;20435;-81
2023/08/17 10:37:41;;;;;;;1.63;1.53;;;28.10;51.40;;;;;;5028561;28;20439;-80
2023/08/17 10:40:10;;;;;;;1.70;1.60;;;28.10;51.50;;;;;;5035881;28;20497;-82
2023/08/17 10:42:42;;;;;;;1.73;1.50;;;28.20;51.40;;;;;;5032296;28;20454;-80
2023/08/17 10:45:29;;;;;;;1.50;1.40;;;28.20;51.10;;;;;;5039920;28;20521;-80
2023/08/17 10:48:26;;;;;;;3.10;1.40;;;28.20;51.50;;;;;;5028550;28;20456;-80
2023/08/17 10:51:04;;;;;;;1.97;1.50;;;28.30;51.40;;;;;;5038453;28;20436;-81
2023/08/17 10:53:44;;;;;;;1.87;1.50;;;28.30;51.20;;;;;;5040630;28;20462;-80
2023/08/17 10:56:12;;;;;;;1.53;1.43;;;28.40;51.20;;;;;;5040090;28;20432;-82
2023/08/17 10:58:41;;;;;;;2.87;1.30;;;28.40;51.00;;;;;;5028338;28;20431;-81
2023/08/17 11:01:09;;;;;;;2.57;1.70;;;28.50;51.10;;;;;;5037945;28;20506;-81
2023/08/17 11:03:39;;;;;;;1.67;1.57;;;28.60;51.00;;;;;;5040392;28;20529;-80
2023/08/17 11:06:18;;;;;;;1.40;1.30;;;28.80;50.80;;;;;;5029175;28;20429;-80
2023/08/17 11:08:53;;;;;;;2.40;1.40;;;28.80;50.50;;;;;;5024788;28;20406;-81
2023/08/17 11:11:21;;;;;;;1.70;1.57;;;28.80;50.50;;;;;;5040904;28;20485;-82
2023/08/17 11:13:49;;;;;;;1.20;1.20;;;28.80;50.60;;;;;;5041029;28;20493;-82
2023/08/17 11:16:23;;;;;;;1.87;1.40;;;28.80;50.80;;;;;;5040511;28;20534;-80
2023/08/17 11:18:52;;;;;;;1.50;1.40;;;28.90;50.50;;;;;;5038539;28;20456;-82
2023/08/17 11:21:20;;;;;;;1.43;1.33;;;28.90;50.30;;;;;;5040155;28;20435;-81
2023/08/17 11:23:48;;;;;;;1.47;1.37;;;29.00;50.70;;;;;;5035938;28;20450;-81
2023/08/17 11:26:17;;;;;;;1.60;1.50;;;29.10;50.50;;;;;;5040034;28;20486;-82
2023/08/17 11:28:45;;;;;;;1.83;1.50;;;29.20;50.40;;;;;;5024489;28;20439;-81
2023/08/17 11:31:14;;;;;;;1.20;1.20;;;29.40;50.20;;;;;;5038587;28;20957;-80
2023/08/17 11:33:42;;;;;;;1.73;1.47;;;29.70;50.00;;;;;;5041494;28;20459;-82
2023/08/17 11:36:11;;;;;;;1.40;1.30;;;30.00;49.70;;;;;;5037576;28;20452;-82
2023/08/17 11:38:40;;;;;;;1.53;1.30;;;30.50;49.20;;;;;;5037935;28;20918;-81
2023/08/17 11:41:09;;;;;;;2.90;1.20;;;31.60;49.70;;;;;;5034407;28;20483;-80
2023/08/17 11:43:37;;;;;;;1.13;1.10;;;32.60;46.40;;;;;;5025661;28;20486;-81
2023/08/17 11:46:06;;;;;;;1.23;1.13;;;33.30;45.60;;;;;;5023060;28;20445;-81
2023/08/17 11:48:34;;;;;;;1.30;1.20;;;33.50;44.30;;;;;;5038777;28;20523;-81
2023/08/17 11:51:04;;;;;;;1.30;1.20;;;33.50;44.10;;;;;;5041010;28;20436;-82
2023/08/17 11:53:35;;;;;;;1.30;1.30;;;33.40;43.60;;;;;;5040579;28;20452;-81
2023/08/17 11:56:03;;;;;;;1.27;1.17;;;33.40;43.90;;;;;;5040959;28;20867;-82
2023/08/17 11:58:43;;;;;;;1.20;1.10;;;33.50;43.90;;;;;;5040126;28;20946;-81
2023/08/17 12:01:12;;;;;;;1.30;1.20;;;33.40;43.50;;;;;;5040801;28;20462;-82
2023/08/17 12:03:41;;;;;;;1.20;1.20;;;33.30;43.90;;;;;;5040035;28;20538;-81
2023/08/17 12:06:10;;;;;;;1.10;1.03;;;33.10;43.90;;;;;;5043429;28;20471;-80
2023/08/17 12:08:39;;;;;;;1.13;1.13;;;32.70;44.20;;;;;;5043494;28;20930;-81
2023/08/17 12:11:08;;;;;;;1.30;1.20;;;32.40;44.70;;;;;;5041443;28;20519;-81
2023/08/17 12:13:37;;;;;;;1.40;1.40;;;32.10;45.20;;;;;;5042120;28;20514;-82
2023/08/17 12:16:05;;;;;;;1.23;1.23;;;31.90;45.40;;;;;;5040327;28;20531;-83
2023/08/17 12:18:34;;;;;;;1.37;1.27;;;31.80;45.80;;;;;;5039904;28;20451;-81
2023/08/17 12:21:04;;;;;;;2.30;1.30;;;31.60;46.00;;;;;;5039702;28;20455;-81
2023/08/17 12:23:33;;;;;;;1.43;1.30;;;31.40;46.20;;;;;;5022200;28;20508;-81
2023/08/17 12:26:03;;;;;;;1.73;1.63;;;31.30;46.60;;;;;;5032695;28;20440;-83
2023/08/17 12:28:30;;;;;;;1.63;1.57;;;31.10;46.70;;;;;;5033838;28;20436;-81
2023/08/17 12:31:00;;;;;;;1.37;1.17;;;31.00;46.90;;;;;;5039674;28;20467;-80
2023/08/17 12:33:28;;;;;;;1.20;1.20;;;30.90;47.20;;;;;;5039718;28;20439;-81
2023/08/17 12:35:57;;;;;;;1.63;1.53;;;30.90;47.40;;;;;;5038863;28;20446;-82
2023/08/17 12:38:25;;;;;;;2.50;1.60;;;30.80;47.50;;;;;;5039078;28;20470;-83
2023/08/17 12:40:54;;;;;;;1.30;1.30;;;30.70;47.70;;;;;;5022491;28;20455;-82
2023/08/17 12:43:23;;;;;;;2.00;1.47;;;30.60;47.70;;;;;;5039172;28;20443;-82
2023/08/17 12:45:52;;;;;;;1.17;1.13;;;30.60;47.80;;;;;;5023057;28;20459;-82
2023/08/17 12:48:20;;;;;;;1.60;1.50;;;30.50;48.00;;;;;;5037838;28;20521;-82
2023/08/17 12:50:48;;;;;;;1.53;1.43;;;30.40;48.60;;;;;;5039565;28;20510;-82
2023/08/17 12:53:16;;;;;;;1.83;1.67;;;30.40;48.10;;;;;;5037100;28;20458;-83
2023/08/17 12:55:44;;;;;;;1.40;1.40;;;30.30;48.30;;;;;;5034043;28;20414;-81
2023/08/17 12:58:12;;;;;;;1.63;1.50;;;30.30;48.30;;;;;;5047297;28;20532;-82